Lampeter, Pennsylvania
Current Conditions -  °F | °C
As of 2:53 AM on Tuesday 21 Oct 2014 (Local Time) from KLNS Reporting Station
Light Rain Light Rain  
Wind Chill: 52°   Ceiling: 7000
Heat Index: 52°   Visibility: 7mi
Dew Point: 50°   Wind: 5mph
Humidity: 93%   Direction: 100°E
Pressure: 29.89"   Gusts: NA
Location:  39.99°N, 76.24°W
Report Text: KLNS 210653Z 10004KT 7SM -RA FEW047 SCT055 OVC070 11/10 A2989 RMK AO2 SLP122 P0003 T01110100
Loading
Personal Weather Stations






























Interactive Weather Map
Tropical Storm Tracking
New forecast layout! Learn more

10-Day Weather Forecast

Advertisements
Track Severe Weather on mobile